createdAt,value
2018-12-13T00:01:00.744Z,6.97
2018-12-13T00:03:28.516Z,8.40
2018-12-13T00:05:56.375Z,9.33
2018-12-13T00:08:24.248Z,8.70
2018-12-13T00:10:52.908Z,10.03
2018-12-13T00:13:20.696Z,9.25
2018-12-13T00:15:48.438Z,8.70
2018-12-13T00:18:17.165Z,9.10
2018-12-13T00:20:45.062Z,8.28
2018-12-13T00:23:12.989Z,8.93
2018-12-13T00:25:41.808Z,9.20
2018-12-13T00:28:09.641Z,8.73
2018-12-13T00:30:37.592Z,8.38
2018-12-13T00:33:05.455Z,8.03
2018-12-13T00:35:33.262Z,8.90
2018-12-13T00:38:01.123Z,9.33
2018-12-13T00:40:28.897Z,8.25
2018-12-13T00:42:57.569Z,8.75
2018-12-13T00:45:25.382Z,9.60
2018-12-13T00:47:53.341Z,8.93
2018-12-13T00:50:21.393Z,9.80
2018-12-13T00:52:49.218Z,8.20
2018-12-13T00:55:17.196Z,8.55
2018-12-13T00:57:44.983Z,9.70
2018-12-13T01:00:12.792Z,7.67
2018-12-13T01:02:40.662Z,10.23
2018-12-13T01:05:08.499Z,8.40
2018-12-13T01:07:36.371Z,9.63
2018-12-13T01:10:05.603Z,7.78
2018-12-13T01:12:33.336Z,8.60
2018-12-13T01:15:01.164Z,9.63
2018-12-13T01:17:28.868Z,9.40
2018-12-13T01:19:56.782Z,9.73
2018-12-13T01:22:24.619Z,10.58
2018-12-13T01:24:52.569Z,10.13
2018-12-13T01:27:20.441Z,9.05
2018-12-13T01:29:48.359Z,9.90
2018-12-13T01:32:16.089Z,11.22
2018-12-13T01:34:43.925Z,11.00
2018-12-13T01:37:12.604Z,10.70
2018-12-13T01:39:40.893Z,11.20
2018-12-13T01:42:09.632Z,12.45
2018-12-13T01:44:37.742Z,12.18
2018-12-13T01:47:06.904Z,10.85
2018-12-13T01:49:34.703Z,12.25
2018-12-13T01:52:03.079Z,9.93
2018-12-13T01:54:30.824Z,11.73
2018-12-13T01:56:58.673Z,11.83
2018-12-13T01:59:26.690Z,11.53
2018-12-13T02:01:55.632Z,12.23
2018-12-13T02:04:23.624Z,10.75
2018-12-13T02:06:51.558Z,10.88
2018-12-13T02:09:19.406Z,11.08
2018-12-13T02:11:47.313Z,12.00
2018-12-13T02:14:15.204Z,9.98
2018-12-13T02:16:43.253Z,11.05
2018-12-13T02:19:11.192Z,12.65
2018-12-13T02:21:39.184Z,12.75
2018-12-13T02:24:07.768Z,10.80
2018-12-13T02:26:35.830Z,10.70
2018-12-13T02:29:03.723Z,10.85
2018-12-13T02:31:32.754Z,10.85
2018-12-13T02:34:00.589Z,9.88
2018-12-13T02:36:29.584Z,11.53
2018-12-13T02:38:57.537Z,11.45
2018-12-13T02:41:25.576Z,11.25
2018-12-13T02:43:53.407Z,11.60
2018-12-13T02:46:21.253Z,11.18
2018-12-13T02:48:49.649Z,10.82
2018-12-13T02:51:17.557Z,12.40
2018-12-13T02:53:46.420Z,11.48
2018-12-13T02:56:17.054Z,11.35
2018-12-13T02:58:44.930Z,13.32
2018-12-13T03:01:12.872Z,13.48
2018-12-13T03:03:40.589Z,13.03
2018-12-13T03:06:08.766Z,13.13
2018-12-13T03:08:36.596Z,12.95
2018-12-13T03:11:04.403Z,13.35
2018-12-13T03:13:32.272Z,12.85
2018-12-13T03:16:00.128Z,13.80
2018-12-13T03:18:28.144Z,14.15
2018-12-13T03:20:56.037Z,14.60
2018-12-13T03:23:24.809Z,15.38
2018-12-13T03:25:52.713Z,14.20
2018-12-13T03:28:20.640Z,15.72
2018-12-13T03:30:48.443Z,14.55
2018-12-13T03:33:16.371Z,15.00
2018-12-13T03:35:44.352Z,13.18
2018-12-13T03:38:12.174Z,13.60
2018-12-13T03:40:40.953Z,13.95
2018-12-13T03:43:08.688Z,13.03
2018-12-13T03:45:36.564Z,14.95
2018-12-13T03:48:04.294Z,13.00
2018-12-13T03:50:32.259Z,13.98
2018-12-13T03:53:00.103Z,13.28
2018-12-13T03:55:27.795Z,14.38
2018-12-13T03:57:56.259Z,14.05
2018-12-13T04:00:24.024Z,14.15
2018-12-13T04:02:51.816Z,14.73
2018-12-13T04:05:19.668Z,13.70
2018-12-13T04:07:47.447Z,14.83
2018-12-13T04:10:15.899Z,14.07
2018-12-13T04:12:43.654Z,14.33
2018-12-13T04:15:11.407Z,14.58
2018-12-13T04:17:39.086Z,13.88
2018-12-13T04:20:06.997Z,15.13
2018-12-13T04:22:34.724Z,14.18
2018-12-13T04:25:02.509Z,13.78
2018-12-13T04:27:30.344Z,15.05
2018-12-13T04:29:58.031Z,13.62
2018-12-13T04:32:25.821Z,14.43
2018-12-13T04:34:53.532Z,15.68
2018-12-13T04:37:21.310Z,13.38
2018-12-13T04:39:49.338Z,14.03
2018-12-13T04:42:17.098Z,13.70
2018-12-13T04:44:44.820Z,14.68
2018-12-13T04:47:12.605Z,15.10
2018-12-13T04:49:40.465Z,15.03
2018-12-13T04:52:08.206Z,13.30
2018-12-13T04:54:36.063Z,12.55
2018-12-13T04:57:03.829Z,12.93
2018-12-13T04:59:31.661Z,15.05
2018-12-13T05:01:59.446Z,14.00
2018-12-13T05:04:27.189Z,13.50
2018-12-13T05:06:54.890Z,13.25
2018-12-13T05:09:22.717Z,12.70
2018-12-13T05:11:50.406Z,12.30
2018-12-13T05:14:18.162Z,13.08
2018-12-13T05:16:45.959Z,14.25
2018-12-13T05:19:13.807Z,14.40
2018-12-13T05:21:41.604Z,14.60
2018-12-13T05:24:09.334Z,14.38
2018-12-13T05:26:37.990Z,12.90
2018-12-13T05:29:05.710Z,13.85
2018-12-13T05:31:33.495Z,14.63
2018-12-13T05:34:01.362Z,13.72
2018-12-13T05:36:29.155Z,13.78
2018-12-13T05:38:56.977Z,14.80
2018-12-13T05:41:24.840Z,13.68
2018-12-13T05:43:54.582Z,13.62
2018-12-13T05:46:22.247Z,14.20
2018-12-13T05:48:50.030Z,14.63
2018-12-13T05:51:18.651Z,13.90
2018-12-13T05:53:46.391Z,13.90
2018-12-13T05:56:14.081Z,12.75
2018-12-13T05:58:41.859Z,14.83
2018-12-13T06:01:10.008Z,14.70
2018-12-13T06:03:37.725Z,14.93
2018-12-13T06:06:05.581Z,14.38
2018-12-13T06:08:33.384Z,14.30
2018-12-13T06:11:01.158Z,14.68
2018-12-13T06:13:28.888Z,14.43
2018-12-13T06:15:56.735Z,15.30
2018-12-13T06:18:25.387Z,14.80
2018-12-13T06:20:53.563Z,14.85
2018-12-13T06:23:21.365Z,14.00
2018-12-13T06:25:50.495Z,15.28
2018-12-13T06:28:18.533Z,14.55
2018-12-13T06:30:46.427Z,15.85
2018-12-13T06:33:14.196Z,12.75
2018-12-13T06:35:42.031Z,15.43
2018-12-13T06:38:09.785Z,15.78
2018-12-13T06:40:37.560Z,15.53
2018-12-13T06:43:05.301Z,16.45
2018-12-13T06:45:33.122Z,13.55
2018-12-13T06:48:01.420Z,14.50
2018-12-13T06:50:29.201Z,15.08
2018-12-13T06:52:56.982Z,14.80
2018-12-13T06:55:25.243Z,14.93
2018-12-13T06:57:53.720Z,16.07
2018-12-13T07:00:21.479Z,15.83
2018-12-13T07:02:49.278Z,15.35
2018-12-13T07:05:17.116Z,16.93
2018-12-13T07:07:45.765Z,17.82
2018-12-13T07:10:13.568Z,16.77
2018-12-13T07:12:42.568Z,15.98
2018-12-13T07:15:10.470Z,15.85
2018-12-13T07:17:38.300Z,15.78
2018-12-13T07:20:07.834Z,17.27
2018-12-13T07:22:36.797Z,17.42
2018-12-13T07:25:06.864Z,17.20
2018-12-13T07:27:36.349Z,16.37
2018-12-13T07:30:06.624Z,18.17
2018-12-13T07:32:34.501Z,15.68
2018-12-13T07:35:02.375Z,15.98
2018-12-13T07:37:30.234Z,16.37
2018-12-13T07:39:58.954Z,18.35
2018-12-13T07:42:27.051Z,17.12
2018-12-13T07:44:55.250Z,17.50
2018-12-13T07:47:25.252Z,16.00
2018-12-13T07:49:53.742Z,17.73
2018-12-13T07:52:22.084Z,17.02
2018-12-13T07:54:49.886Z,18.32
2018-12-13T07:57:19.874Z,16.80
2018-12-13T07:59:48.512Z,18.35
2018-12-13T08:02:19.450Z,18.55
2018-12-13T08:04:49.014Z,18.10
2018-12-13T08:07:18.098Z,17.10
2018-12-13T08:09:48.203Z,18.85
2018-12-13T08:12:18.930Z,17.92
2018-12-13T08:14:48.153Z,16.48
2018-12-13T08:17:17.155Z,17.55
2018-12-13T08:19:46.135Z,18.52
2018-12-13T08:22:16.560Z,18.50
2018-12-13T08:24:47.089Z,17.65
2018-12-13T08:27:15.894Z,18.23
2018-12-13T08:29:44.627Z,18.50
2018-12-13T08:32:13.231Z,17.48
2018-12-13T08:34:41.958Z,18.17
2018-12-13T08:37:11.598Z,19.50
2018-12-13T08:39:40.425Z,19.27
2018-12-13T08:42:12.058Z,17.35
2018-12-13T08:44:42.386Z,17.73
2018-12-13T08:47:12.501Z,18.82
2018-12-13T08:49:45.228Z,19.02
2018-12-13T08:52:17.619Z,17.42
2018-12-13T08:54:48.301Z,17.48
2018-12-13T08:57:17.954Z,19.98
2018-12-13T08:59:48.534Z,17.62
2018-12-13T09:02:18.925Z,20.82
2018-12-13T09:04:49.124Z,18.30
2018-12-13T09:07:18.559Z,18.70
2018-12-13T09:09:53.256Z,19.10
2018-12-13T09:12:26.891Z,17.17
2018-12-13T09:14:56.411Z,18.80
2018-12-13T09:17:24.875Z,18.40
2018-12-13T09:19:56.919Z,19.02
2018-12-13T09:22:25.358Z,19.15
2018-12-13T09:24:56.403Z,18.20
2018-12-13T09:27:25.010Z,18.50
2018-12-13T09:29:54.145Z,17.32
2018-12-13T09:32:22.565Z,18.12
2018-12-13T09:34:51.145Z,19.85
2018-12-13T09:37:20.120Z,18.62
2018-12-13T09:39:49.260Z,18.45
2018-12-13T09:42:19.516Z,19.50
2018-12-13T09:44:49.065Z,20.08
2018-12-13T09:47:17.443Z,21.15
2018-12-13T09:49:45.968Z,17.12
2018-12-13T09:52:15.633Z,19.17
2018-12-13T09:54:44.493Z,19.92
2018-12-13T09:57:12.834Z,17.37
2018-12-13T09:59:41.090Z,17.55
2018-12-13T10:02:09.358Z,21.33
2018-12-13T10:04:37.915Z,19.15
2018-12-13T10:07:07.778Z,20.50
2018-12-13T10:09:36.916Z,18.15
2018-12-13T10:12:05.564Z,19.57
2018-12-13T10:14:33.760Z,20.10
2018-12-13T10:17:02.730Z,19.07
2018-12-13T10:19:30.849Z,19.45
2018-12-13T10:21:59.842Z,20.05
2018-12-13T10:24:28.733Z,19.17
2018-12-13T10:26:57.093Z,17.73
2018-12-13T10:29:25.825Z,20.95
2018-12-13T10:31:54.491Z,19.92
2018-12-13T10:34:22.981Z,19.40
2018-12-13T10:36:53.038Z,21.15
2018-12-13T10:39:21.478Z,24.20
2018-12-13T10:41:50.692Z,20.68
2018-12-13T10:44:21.005Z,20.68
2018-12-13T10:46:50.392Z,20.30
2018-12-13T10:49:19.095Z,20.15
2018-12-13T10:51:47.524Z,20.50
2018-12-13T10:54:16.662Z,19.90
2018-12-13T10:56:45.395Z,19.40
2018-12-13T10:59:14.485Z,22.27
2018-12-13T11:01:44.867Z,19.85
2018-12-13T11:04:13.680Z,21.23
2018-12-13T11:06:42.253Z,20.57
2018-12-13T11:09:10.941Z,21.48
2018-12-13T11:11:41.029Z,20.48
2018-12-13T11:14:12.928Z,21.85
2018-12-13T11:16:42.156Z,21.23
2018-12-13T11:19:11.217Z,21.02
2018-12-13T11:21:40.615Z,21.62
2018-12-13T11:24:09.310Z,21.62
2018-12-13T11:26:37.261Z,21.65
2018-12-13T11:29:17.297Z,20.02
2018-12-13T11:31:45.925Z,21.48
2018-12-13T11:34:14.981Z,21.27
2018-12-13T11:36:45.073Z,19.87
2018-12-13T11:39:12.994Z,20.68
2018-12-13T11:41:41.774Z,18.60
2018-12-13T11:44:10.617Z,20.25
2018-12-13T11:46:40.385Z,19.50
2018-12-13T11:49:12.314Z,19.98
2018-12-13T11:51:41.058Z,20.15
2018-12-13T11:54:13.981Z,21.37
2018-12-13T11:56:43.555Z,20.30
2018-12-13T11:59:13.109Z,20.80
2018-12-13T12:01:42.120Z,21.60
2018-12-13T12:04:11.887Z,24.05
2018-12-13T12:06:40.274Z,20.70
2018-12-13T12:09:12.381Z,19.73
2018-12-13T12:11:41.209Z,20.65
2018-12-13T12:14:08.986Z,19.92
2018-12-13T12:16:36.731Z,20.35
2018-12-13T12:19:04.777Z,18.98
2018-12-13T12:21:32.432Z,18.45
2018-12-13T12:24:00.217Z,19.42
2018-12-13T12:26:28.611Z,20.97
2018-12-13T12:28:56.682Z,18.20
2018-12-13T12:31:24.485Z,21.37
2018-12-13T12:33:52.431Z,19.75
2018-12-13T12:36:22.063Z,21.10
2018-12-13T12:38:49.962Z,19.02
2018-12-13T12:41:19.863Z,21.73
2018-12-13T12:43:48.129Z,18.52
2018-12-13T12:46:17.458Z,20.80
2018-12-13T12:48:47.616Z,20.68
2018-12-13T12:51:17.629Z,18.95
2018-12-13T12:53:47.480Z,19.75
2018-12-13T12:56:17.357Z,20.50
2018-12-13T12:58:45.844Z,20.12
2018-12-13T13:01:13.570Z,19.40
2018-12-13T13:03:41.457Z,21.70
2018-12-13T13:06:18.289Z,20.50
2018-12-13T13:08:46.159Z,21.57
2018-12-13T13:11:13.980Z,20.23
2018-12-13T13:13:41.799Z,22.37
2018-12-13T13:16:10.481Z,20.00
2018-12-13T13:18:39.149Z,20.48
2018-12-13T13:21:10.853Z,20.72
2018-12-13T13:23:39.555Z,20.72
2018-12-13T13:26:07.399Z,19.23
2018-12-13T13:28:35.214Z,20.85
2018-12-13T13:31:03.036Z,21.45
2018-12-13T13:33:30.930Z,18.25
2018-12-13T13:35:58.777Z,19.12
2018-12-13T13:38:28.117Z,20.15
2018-12-13T13:40:57.080Z,19.73
2018-12-13T13:43:24.858Z,19.05
2018-12-13T13:45:52.730Z,20.62
2018-12-13T13:48:20.641Z,20.65
2018-12-13T13:50:48.459Z,18.17
2018-12-13T13:53:16.490Z,17.70
2018-12-13T13:55:45.471Z,19.65
2018-12-13T13:58:14.240Z,19.17
2018-12-13T14:00:42.134Z,18.25
2018-12-13T14:03:10.371Z,18.75
2018-12-13T14:05:38.272Z,19.20
2018-12-13T14:08:06.269Z,21.10
2018-12-13T14:10:34.991Z,18.80
2018-12-13T14:13:02.818Z,19.52
2018-12-13T14:15:31.284Z,18.60
2018-12-13T14:17:59.264Z,20.10
2018-12-13T14:20:27.513Z,18.00
2018-12-13T14:22:55.583Z,18.45
2018-12-13T14:25:24.507Z,18.50
2018-12-13T14:27:52.822Z,17.77
2018-12-13T14:30:20.550Z,17.40
2018-12-13T14:32:48.705Z,17.07
2018-12-13T14:35:16.616Z,18.65
2018-12-13T14:37:44.451Z,17.27
2018-12-13T14:40:12.846Z,19.15
2018-12-13T14:42:42.151Z,18.65
2018-12-13T14:45:11.118Z,17.42
2018-12-13T14:47:39.023Z,17.17
2018-12-13T14:50:08.557Z,17.40
2018-12-13T14:52:36.493Z,16.45
2018-12-13T14:55:04.565Z,16.37
2018-12-13T14:57:37.450Z,16.27
2018-12-13T15:00:07.032Z,15.48
2018-12-13T15:02:35.522Z,17.95
2018-12-13T15:05:03.663Z,17.95
2018-12-13T15:07:31.545Z,17.52
2018-12-13T15:09:59.336Z,15.10
2018-12-13T15:12:37.910Z,16.32
2018-12-13T15:15:06.887Z,16.40
2018-12-13T15:17:36.082Z,16.60
2018-12-13T15:20:05.064Z,15.55
2018-12-13T15:22:33.028Z,15.55
2018-12-13T15:25:01.911Z,15.58
2018-12-13T15:27:29.714Z,15.72
2018-12-13T15:29:57.567Z,14.63
2018-12-13T15:32:25.452Z,14.10
2018-12-13T15:34:56.166Z,15.23
2018-12-13T15:37:24.921Z,14.47
2018-12-13T15:39:57.274Z,14.95
2018-12-13T15:42:22.683Z,15.83
2018-12-13T15:44:50.564Z,18.27
2018-12-13T15:47:18.546Z,15.43
2018-12-13T15:49:46.552Z,15.90
2018-12-13T15:52:14.471Z,13.83
2018-12-13T15:54:42.370Z,16.20
2018-12-13T15:57:10.404Z,14.20
2018-12-13T15:59:44.101Z,15.10
2018-12-13T16:02:12.439Z,15.15
2018-12-13T16:04:52.936Z,14.38
2018-12-13T16:07:24.847Z,15.18
2018-12-13T16:09:53.024Z,16.12
2018-12-13T16:12:21.140Z,13.78
2018-12-13T16:14:49.020Z,14.50
2018-12-13T16:17:18.218Z,16.35
2018-12-13T16:19:46.109Z,14.78
2018-12-13T16:22:13.906Z,13.18
2018-12-13T16:24:41.718Z,15.30
2018-12-13T16:27:10.310Z,15.05
2018-12-13T16:29:38.145Z,15.08
2018-12-13T16:32:05.867Z,15.98
2018-12-13T16:34:42.159Z,16.50
2018-12-13T16:37:10.027Z,15.80
2018-12-13T16:39:37.979Z,14.70
2018-12-13T16:42:05.754Z,14.95
2018-12-13T16:44:33.540Z,14.20
2018-12-13T16:47:02.105Z,16.32
2018-12-13T16:49:37.220Z,16.30
2018-12-13T16:52:05.018Z,14.40
2018-12-13T16:54:32.872Z,14.33
2018-12-13T16:57:02.041Z,14.93
2018-12-13T16:59:29.896Z,16.30
2018-12-13T17:01:57.629Z,15.45
2018-12-13T17:04:25.446Z,15.38
2018-12-13T17:06:53.322Z,15.35
2018-12-13T17:09:22.001Z,15.83
2018-12-13T17:11:50.014Z,17.57
2018-12-13T17:14:17.993Z,16.25
2018-12-13T17:16:47.481Z,17.80
2018-12-13T17:19:17.173Z,15.30
2018-12-13T17:21:45.860Z,16.07
2018-12-13T17:24:14.395Z,17.02
2018-12-13T17:26:43.810Z,17.02
2018-12-13T17:29:12.995Z,15.35
2018-12-13T17:31:41.084Z,16.50
2018-12-13T17:34:08.747Z,17.45
2018-12-13T17:36:37.112Z,16.32
2018-12-13T17:39:06.813Z,16.90
2018-12-13T17:41:34.670Z,17.27
2018-12-13T17:44:02.433Z,17.73
2018-12-13T17:46:30.264Z,17.62
2018-12-13T17:48:58.052Z,18.32
2018-12-13T17:51:25.837Z,18.15
2018-12-13T17:53:53.813Z,19.70
2018-12-13T17:56:21.591Z,16.15
2018-12-13T17:58:58.936Z,16.75
2018-12-13T18:01:27.119Z,16.12
2018-12-13T18:03:54.836Z,17.52
2018-12-13T18:06:22.739Z,18.00
2018-12-13T18:08:51.143Z,16.12
2018-12-13T18:11:19.107Z,17.42
2018-12-13T18:13:46.859Z,18.82
2018-12-13T18:16:14.651Z,17.05
2018-12-13T18:18:42.477Z,16.97
2018-12-13T18:21:14.151Z,16.60
2018-12-13T18:23:41.861Z,16.30
2018-12-13T18:26:09.731Z,18.60
2018-12-13T18:28:37.456Z,16.52
2018-12-13T18:31:05.278Z,14.43
2018-12-13T18:33:33.044Z,15.00
2018-12-13T18:36:00.789Z,17.37
2018-12-13T18:38:28.587Z,16.85
2018-12-13T18:40:56.361Z,16.05
2018-12-13T18:43:24.240Z,16.55
2018-12-13T18:45:52.035Z,16.93
2018-12-13T18:48:20.375Z,15.35
2018-12-13T18:50:48.074Z,16.40
2018-12-13T18:53:16.696Z,14.68
2018-12-13T18:55:44.482Z,16.80
2018-12-13T18:58:14.665Z,15.25
2018-12-13T19:00:42.887Z,16.73
2018-12-13T19:03:15.445Z,16.10
2018-12-13T19:05:44.895Z,16.40
2018-12-13T19:08:15.850Z,15.48
2018-12-13T19:10:43.997Z,16.32
2018-12-13T19:13:12.249Z,14.58
2018-12-13T19:15:40.544Z,16.87
2018-12-13T19:18:09.576Z,16.12
2018-12-13T19:20:39.223Z,15.55
2018-12-13T19:23:07.010Z,16.00
2018-12-13T19:25:34.777Z,16.50
2018-12-13T19:28:03.121Z,16.52
2018-12-13T19:30:30.898Z,14.80
2018-12-13T19:32:58.712Z,16.60
2018-12-13T19:35:26.594Z,18.52
2018-12-13T19:37:54.292Z,15.48
2018-12-13T19:40:22.038Z,14.98
2018-12-13T19:42:49.824Z,15.45
2018-12-13T19:45:17.580Z,16.62
2018-12-13T19:47:45.301Z,15.13
2018-12-13T19:50:13.126Z,18.57
2018-12-13T19:52:40.838Z,15.30
2018-12-13T19:55:08.589Z,16.07
2018-12-13T19:57:37.984Z,16.32
2018-12-13T20:00:08.722Z,16.75
2018-12-13T20:02:36.489Z,17.30
2018-12-13T20:05:06.359Z,17.67
2018-12-13T20:07:34.063Z,14.63
2018-12-13T20:10:01.819Z,15.93
2018-12-13T20:12:30.181Z,15.72
2018-12-13T20:14:57.997Z,17.50
2018-12-13T20:17:26.320Z,16.80
2018-12-13T20:19:54.034Z,15.43
2018-12-13T20:22:22.445Z,17.40
2018-12-13T20:24:50.236Z,16.67
2018-12-13T20:27:19.023Z,16.37
2018-12-13T20:29:47.057Z,15.40
2018-12-13T20:32:15.672Z,16.42
2018-12-13T20:34:43.678Z,17.67
2018-12-13T20:37:11.467Z,17.80
2018-12-13T20:39:39.158Z,17.48
2018-12-13T20:42:06.966Z,18.00
2018-12-13T20:44:34.754Z,17.17
2018-12-13T20:47:02.534Z,18.02
2018-12-13T20:49:30.998Z,18.05
2018-12-13T20:51:58.747Z,16.77
2018-12-13T20:54:26.482Z,16.75
2018-12-13T20:56:54.227Z,17.15
2018-12-13T20:59:21.996Z,17.87
2018-12-13T21:01:49.829Z,17.75
2018-12-13T21:04:17.596Z,17.15
2018-12-13T21:06:47.486Z,17.57
2018-12-13T21:09:15.191Z,16.77
2018-12-13T21:11:43.697Z,17.10
2018-12-13T21:14:11.414Z,17.73
2018-12-13T21:16:39.218Z,17.95
2018-12-13T21:19:06.897Z,15.88
2018-12-13T21:21:34.733Z,16.40
2018-12-13T21:24:02.520Z,17.90
2018-12-13T21:26:30.225Z,16.15
2018-12-13T21:28:57.991Z,18.73
2018-12-13T21:31:25.846Z,17.77
2018-12-13T21:33:53.602Z,18.65
2018-12-13T21:36:21.434Z,17.65
2018-12-13T21:38:49.175Z,17.87
2018-12-13T21:41:16.969Z,18.10
2018-12-13T21:43:44.779Z,18.77
2018-12-13T21:46:12.503Z,17.42
2018-12-13T21:48:40.266Z,16.87
2018-12-13T21:51:08.032Z,17.52
2018-12-13T21:53:36.814Z,17.00
2018-12-13T21:56:05.236Z,15.72
2018-12-13T21:58:33.391Z,18.85
2018-12-13T22:01:01.128Z,17.30
2018-12-13T22:03:28.870Z,17.12
2018-12-13T22:05:56.622Z,19.45
2018-12-13T22:08:24.481Z,20.27
2018-12-13T22:10:52.865Z,16.67
2018-12-13T22:13:20.623Z,17.75
2018-12-13T22:15:48.450Z,18.35
2018-12-13T22:18:16.159Z,16.10
2018-12-13T22:20:43.986Z,17.80
2018-12-13T22:23:11.757Z,17.55
2018-12-13T22:25:39.519Z,20.27
2018-12-13T22:28:07.291Z,17.27
2018-12-13T22:30:35.032Z,19.40
2018-12-13T22:33:02.806Z,19.75
2018-12-13T22:35:30.582Z,17.25
2018-12-13T22:37:58.316Z,18.75
2018-12-13T22:40:26.101Z,19.40
2018-12-13T22:42:54.407Z,18.02
2018-12-13T22:45:22.048Z,18.35
2018-12-13T22:47:49.832Z,18.62
2018-12-13T22:50:17.558Z,19.20
2018-12-13T22:52:46.774Z,19.30
2018-12-13T22:55:14.697Z,20.23
2018-12-13T22:57:42.460Z,17.15
2018-12-13T23:00:10.772Z,19.37
2018-12-13T23:02:39.067Z,18.73
2018-12-13T23:05:07.943Z,18.23
2018-12-13T23:07:36.329Z,19.35
2018-12-13T23:10:05.525Z,17.25
2018-12-13T23:12:33.246Z,17.30
2018-12-13T23:15:01.438Z,17.75
2018-12-13T23:17:29.222Z,17.73
2018-12-13T23:19:56.967Z,17.95
2018-12-13T23:22:24.723Z,20.27
2018-12-13T23:24:52.514Z,20.52
2018-12-13T23:27:20.493Z,19.10
2018-12-13T23:29:48.237Z,19.62
2018-12-13T23:32:16.051Z,20.43
2018-12-13T23:34:43.753Z,17.40
2018-12-13T23:37:11.546Z,18.32
2018-12-13T23:39:39.390Z,19.95
2018-12-13T23:42:07.112Z,18.60
2018-12-13T23:44:34.935Z,20.02
2018-12-13T23:47:02.772Z,19.37
2018-12-13T23:49:31.615Z,18.57
2018-12-13T23:51:59.372Z,19.95
2018-12-13T23:54:27.075Z,18.12
2018-12-13T23:56:54.902Z,18.67
2018-12-13T23:59:23.539Z,18.48
